Juazeiro de Baixo, Brazil
Current Conditions -  °F | °C
As of 11:00 AM on Saturday 25 Oct 2014 (Local Time) from SBFZ Reporting Station
Few Clouds Few Clouds  
Wind Chill: 86°   Ceiling: Unl
Heat Index: 86°   Visibility: 6mi
Dew Point: 61°   Wind: 22mph
Humidity: 43%   Direction: 100°E
Pressure: 29.91"   Gusts: NA
Location:  5.13°S, 38.57°W
Report Text: SBFZ 251400Z 10019KT 9999 FEW030 30/16 Q1013
Loading
Personal Weather Stations






























Interactive Weather Map New forecast layout! Learn more

10-Day Weather Forecast

Advertisements
Track Severe Weather on mobile